Boston Harbor, Washington
Current Conditions -  °F | °C
As of 7:54 AM on Wednesday 22 Oct 2014 (Local Time) from KOLM Reporting Station
Moderate Rain Moderate Rain  
Wind Chill: 56°   Ceiling: 1400
Heat Index: 56°   Visibility: 4mi
Dew Point: 53°   Wind: 13mph
Humidity: 90%   Direction: 200°SSW
Pressure: 29.7"   Gusts: 24mph
Location:  46.9755°N, 122.872°W
Report Text: KOLM 221454Z 20011G21KT 4SM RA BR BKN014 OVC030 13/12 A2970 RMK AO2 PK WND 17026/1419 SLP057 P0010 60047 T01330117 53003 $
Loading
Personal Weather Stations






























Interactive Weather Map
Tropical Storm Tracking
New forecast layout! Learn more

10-Day Weather Forecast

Advertisements
Track Severe Weather on mobile